Time;durP1;ratioP1;P1;durP2;ratioP2;P2;SDS_P1;SDS_P2;PMS_P1;PMS_P2;Temp;Humidity;BMP_temperature;BMP_pressure;BME280_temperature;BME280_humidity;BME280_pressure;Samples;Min_cycle;Max_cycle;Signal;HPM_P1;HPM_P2
2022/04/15 00:00:17;;;;;;;0.60;0.60;;;15.80;60.20;;;15.31;45.25;95146.34;5052639;28;20207;-85
2022/04/15 00:02:44;;;;;;;0.57;0.57;;;15.80;60.10;;;15.36;45.02;95158.94;5053968;28;20577;-86
2022/04/15 00:05:34;;;;;;;0.73;0.73;;;15.80;60.20;;;15.39;45.04;95163.75;5033834;28;20311;-86
2022/04/15 00:08:04;;;;;;;0.60;0.60;;;15.80;60.20;;;15.33;45.16;95160.16;5057793;28;20269;-85
2022/04/15 00:10:32;;;;;;;0.50;0.50;;;15.80;60.20;;;15.31;45.34;95170.13;5034203;28;20693;-85
2022/04/15 00:13:01;;;;;;;0.70;0.70;;;15.70;60.10;;;15.29;45.13;95171.38;5020410;28;20239;-85
2022/04/15 00:15:29;;;;;;;0.40;0.40;;;15.70;60.10;;;15.27;45.31;95176.06;5019695;28;20215;-85
2022/04/15 00:17:56;;;;;;;0.70;0.70;;;15.70;60.10;;;15.23;45.51;95183.59;5035227;28;20218;-84
2022/04/15 00:20:26;;;;;;;0.50;0.50;;;15.60;60.00;;;15.14;45.25;95161.13;5063535;28;20223;-84
2022/04/15 00:22:54;;;;;;;0.60;0.60;;;15.60;60.00;;;15.16;45.77;95180.19;5022772;28;20543;-84
2022/04/15 00:25:22;;;;;;;0.50;0.50;;;15.60;60.40;;;15.15;45.93;95184.69;5035998;28;20222;-84
2022/04/15 00:27:53;;;;;;;0.60;0.60;;;15.60;60.60;;;15.14;46.08;95182.25;5020765;28;20218;-85
2022/04/15 00:30:21;;;;;;;0.50;0.50;;;15.50;60.70;;;15.10;45.95;95176.59;5051878;28;20222;-85
2022/04/15 00:32:48;;;;;;;0.50;0.50;;;15.50;60.90;;;15.13;46.41;95181.44;5036196;28;20207;-84
2022/04/15 00:35:15;;;;;;;0.60;0.60;;;15.50;61.10;;;15.18;46.43;95188.72;5019823;28;20215;-84
2022/04/15 00:37:42;;;;;;;0.70;0.70;;;15.50;61.20;;;15.21;46.03;95193.59;5019016;28;20687;-84
2022/04/15 00:40:10;;;;;;;0.60;0.60;;;15.50;61.20;;;15.25;46.29;95200.06;5019631;28;20207;-84
2022/04/15 00:42:37;;;;;;;0.50;0.50;;;15.50;61.40;;;15.28;46.57;95199.66;5003690;28;20211;-84
2022/04/15 00:45:09;;;;;;;0.40;0.40;;;15.50;61.50;;;15.31;46.60;95195.78;5000169;28;20212;-85
2022/04/15 00:47:57;;;;;;;0.60;0.60;;;15.50;61.60;;;15.27;47.20;95184.00;5035929;28;20692;-85
2022/04/15 00:50:33;;;;;;;0.70;0.70;;;15.60;61.70;;;15.33;47.22;95196.34;5022093;28;20357;-85
2022/04/15 00:53:10;;;;;;;0.60;0.60;;;15.60;62.10;;;15.27;47.03;95178.69;5051247;28;20212;-85
2022/04/15 00:55:40;;;;;;;0.50;0.50;;;15.60;62.10;;;15.22;47.02;95166.13;5035520;28;20700;-83
2022/04/15 00:58:09;;;;;;;0.40;0.40;;;15.60;62.10;;;15.36;46.90;95185.34;5018910;28;20234;-85
2022/04/15 01:00:37;;;;;;;0.50;0.50;;;15.60;61.90;;;15.31;47.03;95188.63;5033582;28;20235;-86
2022/04/15 01:03:06;;;;;;;0.50;0.50;;;15.60;62.30;;;15.32;47.10;95200.03;5052337;28;20200;-86
2022/04/15 01:05:35;;;;;;;0.50;0.50;;;15.60;62.10;;;15.27;46.91;95198.03;5035573;28;20214;-85
2022/04/15 01:08:04;;;;;;;0.40;0.40;;;15.60;62.10;;;15.25;47.14;95210.63;5047914;28;20184;-86
2022/04/15 01:10:36;;;;;;;0.60;0.60;;;15.60;62.20;;;15.25;47.08;95213.28;5015209;28;20220;-86
2022/04/15 01:13:06;;;;;;;0.60;0.60;;;15.60;62.50;;;15.24;46.81;95221.44;5051854;28;20230;-86
2022/04/15 01:15:51;;;;;;;0.50;0.50;;;15.50;62.20;;;15.02;46.78;95185.56;5019133;28;20218;-86
2022/04/15 01:18:18;;;;;;;0.50;0.50;;;15.60;62.10;;;15.18;46.98;95213.34;5019981;28;20222;-86
2022/04/15 01:20:50;;;;;;;0.50;0.50;;;15.50;62.10;;;15.16;47.12;95202.16;5008300;28;20226;-85
2022/04/15 01:23:18;;;;;;;0.50;0.50;;;15.50;62.60;;;15.11;46.94;95202.00;5045776;28;20192;-86
2022/04/15 01:25:46;;;;;;;0.70;0.70;;;15.50;62.20;;;15.00;47.02;95192.91;5016918;28;20223;-85
2022/04/15 01:28:16;;;;;;;0.55;0.55;;;15.50;62.40;;;15.12;47.05;95223.94;5030731;28;20200;-84
2022/04/15 01:30:47;;;;;;;0.70;0.70;;;15.50;62.30;;;15.13;47.58;95239.56;5017569;28;20227;-85
2022/04/15 01:33:14;;;;;;;0.52;0.52;;;15.40;62.50;;;15.10;47.56;95234.72;5049650;28;20251;-85
2022/04/15 01:35:48;;;;;;;0.50;0.50;;;15.40;62.50;;;15.14;47.84;95225.34;5033100;28;20215;-86
2022/04/15 01:38:17;;;;;;;0.50;0.50;;;15.40;62.70;;;15.16;48.03;95225.09;5050803;28;20187;-87
2022/04/15 01:40:45;;;;;;;0.50;0.50;;;15.40;62.80;;;15.18;47.59;95223.06;5051071;28;20211;-85
2022/04/15 01:43:13;;;;;;;0.60;0.60;;;15.40;62.70;;;15.17;47.61;95221.44;5051196;28;20668;-85
2022/04/15 01:45:40;;;;;;;0.70;0.70;;;15.40;62.70;;;15.19;47.57;95220.22;5049628;28;20230;-86
2022/04/15 01:48:07;;;;;;;0.70;0.70;;;15.40;62.70;;;15.17;47.30;95218.81;5016021;28;20300;-86
2022/04/15 01:50:35;;;;;;;0.50;0.50;;;15.50;62.80;;;15.21;47.65;95222.66;5001114;28;20219;-85
2022/04/15 01:53:02;;;;;;;0.57;0.57;;;15.40;62.80;;;15.20;47.42;95218.41;5035626;28;20218;-85
2022/04/15 01:55:30;;;;;;;0.60;0.60;;;15.50;62.90;;;15.19;47.83;95220.22;5032863;28;20711;-86
2022/04/15 01:57:58;;;;;;;0.70;0.70;;;15.40;62.80;;;15.14;47.72;95217.41;5017594;28;20209;-85
2022/04/15 02:00:26;;;;;;;0.60;0.60;;;15.50;63.00;;;15.18;47.54;95226.53;5030168;28;20296;-85
2022/04/15 02:02:53;;;;;;;0.50;0.50;;;15.50;63.00;;;15.18;47.83;95215.97;5033099;28;20282;-85
2022/04/15 02:05:20;;;;;;;0.50;0.50;;;15.40;63.00;;;15.13;47.99;95204.41;4999735;28;20246;-86
2022/04/15 02:07:47;;;;;;;0.50;0.50;;;15.50;63.30;;;15.15;47.95;95218.22;5042669;28;20551;-84
2022/04/15 02:10:15;;;;;;;0.70;0.70;;;15.50;63.30;;;15.13;48.56;95217.63;5053633;28;20219;-86
2022/04/15 02:12:42;;;;;;;0.60;0.60;;;15.40;63.50;;;15.14;48.19;95211.31;5018832;28;20222;-85
2022/04/15 02:15:09;;;;;;;0.70;0.70;;;15.40;63.40;;;15.12;48.31;95205.44;5032256;28;20217;-85
2022/04/15 02:17:37;;;;;;;0.52;0.52;;;15.40;63.40;;;15.05;48.44;95197.56;5038168;28;20191;-86
2022/04/15 02:20:05;;;;;;;0.50;0.50;;;15.40;63.50;;;15.13;48.30;95213.13;5035812;28;20221;-85
2022/04/15 02:22:32;;;;;;;0.50;0.50;;;15.40;63.50;;;15.14;48.36;95222.69;5017325;28;20195;-84
2022/04/15 02:25:00;;;;;;;0.70;0.70;;;15.40;63.50;;;15.11;47.94;95211.75;5031133;28;20298;-85
2022/04/15 02:27:29;;;;;;;0.60;0.60;;;15.40;63.40;;;15.13;48.03;95217.63;5024513;28;20265;-85
2022/04/15 02:29:56;;;;;;;0.55;0.55;;;15.40;63.60;;;15.12;48.35;95211.50;5069609;28;20298;-86
2022/04/15 02:32:23;;;;;;;0.50;0.50;;;15.40;63.50;;;15.13;48.75;95217.63;5022397;28;20203;-85
2022/04/15 02:34:51;;;;;;;0.50;0.50;;;15.40;63.80;;;15.10;49.24;95226.78;5037799;28;20257;-86
2022/04/15 02:37:18;;;;;;;0.60;0.60;;;15.40;63.80;;;15.09;49.07;95233.09;5021587;28;20195;-85
2022/04/15 02:39:45;;;;;;;0.50;0.50;;;15.40;64.00;;;15.10;49.14;95253.22;5021862;28;20709;-86
2022/04/15 02:42:12;;;;;;;0.60;0.60;;;15.40;64.00;;;15.07;49.45;95258.91;5022223;28;20286;-85
2022/04/15 02:44:39;;;;;;;0.60;0.60;;;15.40;64.30;;;14.98;49.86;95260.97;5021608;28;20219;-85
2022/04/15 02:47:07;;;;;;;0.70;0.70;;;15.40;64.40;;;14.92;50.08;95268.94;5051911;28;20204;-85
2022/04/15 02:49:35;;;;;;;0.60;0.60;;;15.30;64.70;;;14.84;50.00;95270.81;5038197;28;20306;-85
2022/04/15 02:52:04;;;;;;;0.50;0.50;;;15.30;64.60;;;14.78;50.42;95270.81;5037607;28;20187;-86
2022/04/15 02:54:31;;;;;;;0.68;0.68;;;15.20;64.70;;;14.63;50.30;95256.00;5054764;28;20700;-85
2022/04/15 02:56:58;;;;;;;0.40;0.40;;;15.20;64.70;;;14.56;50.85;95252.56;5037530;28;20215;-83
2022/04/15 02:59:25;;;;;;;0.50;0.50;;;15.10;65.10;;;14.41;51.34;95221.16;5037775;28;20215;-84
2022/04/15 03:01:52;;;;;;;0.60;0.60;;;15.00;65.30;;;14.34;51.03;95201.91;5052900;28;20203;-85
2022/04/15 03:04:19;;;;;;;0.60;0.60;;;14.90;65.30;;;14.27;51.15;95211.66;5049028;28;20212;-85
2022/04/15 03:06:46;;;;;;;0.60;0.60;;;14.90;65.40;;;14.04;51.10;95194.50;5021733;28;20199;-86
2022/04/15 03:09:13;;;;;;;0.50;0.50;;;14.80;65.50;;;14.12;51.12;95204.00;5022707;28;20220;-86
2022/04/15 03:11:40;;;;;;;0.57;0.57;;;14.70;65.50;;;14.04;51.37;95207.69;5022140;28;20199;-86
2022/04/15 03:14:08;;;;;;;0.50;0.50;;;14.60;65.60;;;14.04;51.32;95207.69;5022053;28;20219;-86
2022/04/15 03:16:36;;;;;;;0.50;0.50;;;14.60;65.70;;;13.89;51.95;95198.16;5054379;28;20279;-86
2022/04/15 03:19:03;;;;;;;0.50;0.50;;;14.60;66.10;;;13.96;52.31;95213.97;5020859;28;20210;-86
2022/04/15 03:21:30;;;;;;;0.68;0.68;;;14.50;66.10;;;13.84;52.81;95195.34;5019671;28;20203;-86
2022/04/15 03:23:57;;;;;;;0.50;0.50;;;14.50;66.40;;;13.80;53.27;95203.84;5051990;28;20225;-86
2022/04/15 03:26:25;;;;;;;0.50;0.50;;;14.40;66.60;;;13.79;53.99;95218.03;5010163;28;20203;-85
2022/04/15 03:28:52;;;;;;;0.70;0.70;;;14.40;67.00;;;13.72;54.09;95210.97;5029764;28;20219;-86
2022/04/15 03:31:19;;;;;;;0.50;0.50;;;14.40;67.20;;;13.70;54.03;95212.19;5027689;28;20230;-86
2022/04/15 03:33:47;;;;;;;0.60;0.60;;;14.30;67.40;;;13.66;54.44;95208.31;5022108;28;20219;-84
2022/04/15 03:36:14;;;;;;;0.50;0.50;;;14.30;67.40;;;13.67;53.74;95207.31;5003214;28;20659;-86
2022/04/15 03:38:41;;;;;;;0.60;0.60;;;14.20;67.30;;;13.60;54.06;95207.31;5017678;28;20688;-85
2022/04/15 03:41:09;;;;;;;0.43;0.43;;;14.20;67.50;;;13.60;53.68;95208.13;5054967;28;20198;-85
2022/04/15 03:43:36;;;;;;;0.50;0.50;;;14.20;67.60;;;13.56;54.01;95214.00;5001984;28;20203;-85
2022/04/15 03:46:04;;;;;;;0.50;0.50;;;14.10;67.60;;;13.53;54.35;95217.03;5019229;28;20194;-86
2022/04/15 03:48:31;;;;;;;0.50;0.50;;;14.00;67.60;;;13.47;54.83;95215.22;5053310;28;20616;-86
2022/04/15 03:50:58;;;;;;;0.50;0.50;;;14.10;68.00;;;13.47;55.40;95221.28;5017873;28;20689;-86
2022/04/15 03:53:25;;;;;;;0.50;0.50;;;14.00;68.10;;;13.39;55.96;95216.22;5034831;28;20215;-85
2022/04/15 03:55:52;;;;;;;0.70;0.70;;;14.00;68.40;;;13.38;55.54;95222.53;5035388;28;20235;-85
2022/04/15 03:58:20;;;;;;;0.50;0.50;;;13.90;68.30;;;13.34;55.75;95224.72;5053694;28;20303;-85
2022/04/15 04:00:47;;;;;;;0.52;0.52;;;13.90;68.50;;;13.31;56.75;95224.31;5022596;28;20293;-85
2022/04/15 04:03:15;;;;;;;0.50;0.50;;;13.90;69.00;;;13.27;57.26;95234.44;5018572;28;20199;-85
2022/04/15 04:05:43;;;;;;;0.50;0.50;;;13.80;69.30;;;13.24;56.20;95233.00;5025019;28;20257;-86
2022/04/15 04:08:11;;;;;;;0.50;0.50;;;13.80;68.90;;;13.24;55.92;95234.81;5040480;28;20190;-85
2022/04/15 04:10:38;;;;;;;0.50;0.50;;;13.80;68.90;;;13.21;56.40;95235.22;5034863;28;20496;-84
2022/04/15 04:13:05;;;;;;;0.50;0.50;;;13.70;69.20;;;13.20;56.57;95236.25;5051737;28;20692;-84
2022/04/15 04:15:34;;;;;;;0.50;0.50;;;13.70;69.30;;;13.19;56.64;95239.88;5035798;28;20227;-86
2022/04/15 04:18:01;;;;;;;0.50;0.50;;;13.70;69.30;;;13.08;56.49;95226.28;5042274;28;20671;-84
2022/04/15 04:20:28;;;;;;;0.60;0.60;;;13.70;69.40;;;13.15;57.64;95241.31;5023055;28;20306;-85
2022/04/15 04:22:55;;;;;;;0.50;0.50;;;13.70;69.80;;;13.15;56.75;95234.19;5034607;28;20203;-85
2022/04/15 04:25:23;;;;;;;0.50;0.50;;;13.60;69.60;;;13.07;56.46;95235.22;5018183;28;20223;-86
2022/04/15 04:27:50;;;;;;;0.50;0.50;;;13.60;69.60;;;13.01;56.74;95229.91;5067953;28;20195;-85
2022/04/15 04:30:17;;;;;;;0.60;0.60;;;13.60;69.60;;;13.12;56.51;95247.75;5034704;28;20220;-86
2022/04/15 04:32:51;;;;;;;0.50;0.50;;;13.60;69.60;;;13.10;56.98;95250.59;5050793;28;20197;-86
2022/04/15 04:35:21;;;;;;;0.50;0.50;;;13.60;69.80;;;13.10;56.33;95250.59;5048566;28;20681;-86
2022/04/15 04:37:49;;;;;;;0.50;0.50;;;13.60;69.70;;;13.06;56.85;95254.66;5049707;28;20206;-84
2022/04/15 04:40:16;;;;;;;0.50;0.50;;;13.60;69.60;;;13.10;57.21;95260.31;5036500;28;20292;-86
2022/04/15 04:42:48;;;;;;;0.50;0.50;;;13.60;70.00;;;13.10;56.98;95260.31;5048083;28;20207;-86
2022/04/15 04:45:15;;;;;;;0.60;0.60;;;13.60;70.20;;;13.08;57.49;95263.13;5047888;28;20215;-85
2022/04/15 04:47:46;;;;;;;0.50;0.50;;;13.50;70.00;;;13.08;57.36;95263.13;5040569;28;20211;-85
2022/04/15 04:50:13;;;;;;;0.50;0.50;;;13.60;70.40;;;13.00;57.80;95254.59;5018490;28;20309;-86
2022/04/15 04:52:40;;;;;;;0.50;0.50;;;13.60;70.40;;;13.02;58.00;95256.03;5027026;28;20184;-85
2022/04/15 04:55:08;;;;;;;0.50;0.50;;;13.60;70.50;;;13.09;58.25;95264.75;5045975;28;20249;-87
2022/04/15 04:57:38;;;;;;;0.60;0.60;;;13.60;70.80;;;13.09;58.84;95269.22;5051435;28;20227;-86
2022/04/15 05:00:07;;;;;;;0.52;0.52;;;13.60;71.10;;;13.09;58.94;95279.75;5029542;28;20700;-87
2022/04/15 05:02:35;;;;;;;0.50;0.50;;;13.50;71.30;;;13.13;58.75;95288.88;5028363;28;20246;-86
2022/04/15 05:05:03;;;;;;;0.50;0.50;;;13.60;71.30;;;13.15;58.65;95297.41;5015719;28;20653;-85
2022/04/15 05:07:31;;;;;;;0.52;0.52;;;13.60;71.40;;;13.19;58.69;95292.56;5044923;28;20219;-86
2022/04/15 05:10:07;;;;;;;0.50;0.50;;;13.60;71.40;;;13.21;58.97;95308.97;5032986;28;20241;-85
2022/04/15 05:12:35;;;;;;;0.50;0.50;;;13.60;71.80;;;13.28;58.37;95313.25;5048631;28;20502;-86
2022/04/15 05:15:02;;;;;;;0.50;0.50;;;13.70;71.40;;;13.27;58.38;95311.63;5031160;28;20242;-87
2022/04/15 05:17:29;;;;;;;0.50;0.50;;;13.60;71.40;;;13.27;59.09;95310.81;5040403;28;20265;-87
2022/04/15 05:19:56;;;;;;;0.50;0.50;;;13.70;71.70;;;13.36;58.82;95325.41;5055919;28;20222;-87
2022/04/15 05:22:23;;;;;;;0.52;0.52;;;13.70;71.70;;;13.37;59.41;95324.41;5026980;28;20204;-87
2022/04/15 05:24:52;;;;;;;0.50;0.50;;;13.70;71.80;;;13.39;58.61;95321.59;5043015;28;20214;-85
2022/04/15 05:27:20;;;;;;;0.50;0.50;;;13.70;71.60;;;13.44;58.18;95327.91;5058864;28;20199;-85
2022/04/15 05:29:48;;;;;;;0.50;0.50;;;13.80;71.50;;;13.42;57.71;95305.41;5016218;28;20216;-87
2022/04/15 05:32:15;;;;;;;0.60;0.60;;;13.80;71.40;;;13.45;58.35;95319.00;5029160;28;20246;-86
2022/04/15 05:34:46;;;;;;;0.60;0.60;;;13.80;72.60;;;13.53;58.24;95325.88;5077021;28;20229;-86
2022/04/15 05:37:13;;;;;;;0.50;0.50;;;13.80;71.60;;;13.51;57.89;95321.84;5018602;28;20638;-87
2022/04/15 05:39:40;;;;;;;0.50;0.50;;;13.80;71.40;;;13.60;57.77;95332.00;5013334;28;20215;-87
2022/04/15 05:42:07;;;;;;;0.60;0.60;;;13.90;71.40;;;13.63;57.73;95341.31;5050219;28;20260;-88
2022/04/15 05:44:34;;;;;;;0.50;0.50;;;13.90;71.50;;;13.57;57.64;95328.94;5028840;28;20218;-86
2022/04/15 05:47:05;;;;;;;0.50;0.50;;;13.90;71.30;;;13.69;57.65;95342.34;5047034;28;20714;-87
2022/04/15 05:49:34;;;;;;;0.60;0.60;;;14.00;71.50;;;13.69;57.66;95340.50;5015414;28;20240;-87
2022/04/15 05:52:02;;;;;;;0.50;0.50;;;13.90;71.40;;;13.69;57.38;95337.88;5047776;28;20199;-87
2022/04/15 05:54:29;;;;;;;0.60;0.60;;;14.00;71.50;;;13.65;57.71;95323.50;5035283;28;20228;-86
2022/04/15 05:56:57;;;;;;;0.50;0.50;;;14.00;71.50;;;13.63;57.73;95314.16;5051629;28;20658;-86
2022/04/15 05:59:24;;;;;;;0.60;0.60;;;14.10;71.70;;;13.79;58.45;95342.75;5017533;28;20243;-86
2022/04/15 06:01:51;;;;;;;0.60;0.60;;;14.10;71.80;;;13.84;58.00;95339.53;5017052;28;20207;-86
2022/04/15 06:04:19;;;;;;;0.60;0.60;;;14.10;71.70;;;13.89;57.91;95350.28;5060666;28;20223;-87
2022/04/15 06:06:47;;;;;;;0.50;0.50;;;14.10;71.70;;;13.78;57.79;95325.34;5033092;28;20203;-87
2022/04/15 06:09:16;;;;;;;0.50;0.50;;;14.20;71.70;;;13.98;57.52;95354.34;5065192;28;20233;-86
2022/04/15 06:11:43;;;;;;;0.50;0.50;;;14.20;71.70;;;14.01;58.48;95346.03;5032843;28;20195;-87
2022/04/15 06:14:10;;;;;;;0.50;0.50;;;14.20;71.80;;;14.03;57.69;95346.63;5039432;28;20215;-86
2022/04/15 06:16:39;;;;;;;0.70;0.70;;;14.30;71.80;;;13.98;58.08;95340.38;5034010;28;20199;-87
2022/04/15 06:19:06;;;;;;;0.70;0.70;;;14.30;71.90;;;14.09;58.06;95353.72;5017783;28;20664;-87
2022/04/15 06:21:50;;;;;;;0.50;0.50;;;14.40;71.90;;;14.12;58.51;95355.16;5070964;28;20210;-88
2022/04/15 06:24:17;;;;;;;0.70;0.70;;;14.40;72.10;;;14.11;58.29;95355.38;5009099;28;20594;-88
2022/04/15 06:26:45;;;;;;;0.50;0.50;;;14.40;71.90;;;14.07;57.98;95352.31;5040985;28;20461;-88
2022/04/15 06:29:15;;;;;;;0.60;0.60;;;14.40;71.80;;;14.12;58.38;95352.50;5037879;28;20235;-87
2022/04/15 06:31:44;;;;;;;0.70;0.70;;;14.40;71.90;;;14.15;57.58;95359.25;5040508;28;20245;-88
2022/04/15 06:34:11;;;;;;;0.50;0.50;;;14.40;71.80;;;14.17;57.80;95355.38;5063377;28;20319;-88
2022/04/15 06:36:39;;;;;;;0.70;0.70;;;14.40;71.80;;;14.20;58.10;95362.06;5023041;28;20204;-87
2022/04/15 06:39:06;;;;;;;0.57;0.57;;;14.50;72.10;;;14.18;57.76;95364.09;5043005;28;20212;-88
2022/04/15 06:41:34;;;;;;;0.50;0.50;;;14.40;71.90;;;14.24;58.04;95352.72;5055960;28;20215;-88
2022/04/15 06:44:01;;;;;;;0.52;0.52;;;14.50;72.10;;;14.20;58.81;95352.31;5061266;28;20670;-87
2022/04/15 06:46:28;;;;;;;0.70;0.70;;;14.50;72.20;;;14.30;58.58;95359.03;5064090;28;20210;-88
2022/04/15 06:48:58;;;;;;;0.50;0.50;;;14.50;72.30;;;14.29;58.36;95371.38;5033455;28;20736;-88
2022/04/15 06:51:25;;;;;;;0.40;0.40;;;14.50;72.40;;;14.33;58.44;95366.50;5058432;28;20219;-88
2022/04/15 06:53:52;;;;;;;0.40;0.40;;;14.60;72.50;;;14.37;58.62;95362.47;5011648;28;20651;-87
2022/04/15 06:56:20;;;;;;;0.63;0.63;;;14.60;72.60;;;14.45;58.48;95362.25;5059488;28;20207;-86
2022/04/15 06:58:48;;;;;;;0.70;0.70;;;14.60;72.60;;;14.53;58.34;95361.22;5025800;28;20204;-87
2022/04/15 07:01:15;;;;;;;0.50;0.50;;;14.70;72.80;;;14.64;58.35;95365.06;5010185;28;20234;-87
2022/04/15 07:03:42;;;;;;;0.57;0.57;;;14.70;72.90;;;14.64;58.35;95346.59;5060238;28;20556;-87
2022/04/15 07:06:10;;;;;;;0.50;0.50;;;14.80;72.90;;;14.73;58.05;95351.47;5062132;28;20196;-87
2022/04/15 07:08:37;;;;;;;0.50;0.50;;;14.80;72.80;;;14.91;57.99;95368.50;5054952;28;20208;-87
2022/04/15 07:11:04;;;;;;;0.50;0.50;;;14.90;72.90;;;14.89;58.11;95344.09;5011824;28;20184;-86
2022/04/15 07:13:37;;;;;;;0.50;0.50;;;15.00;73.00;;;15.08;58.08;95360.91;5018811;28;20657;-87
2022/04/15 07:16:05;;;;;;;0.50;0.50;;;15.10;73.00;;;15.09;57.80;95345.88;5020498;28;20290;-87
2022/04/15 07:18:32;;;;;;;0.50;0.50;;;15.10;72.90;;;15.29;57.83;95365.09;5039744;28;20214;-87
2022/04/15 07:20:59;;;;;;;0.50;0.50;;;15.20;73.00;;;15.42;58.14;95366.88;5019277;28;20224;-87
2022/04/15 07:23:28;;;;;;;0.60;0.60;;;15.30;73.10;;;15.42;57.77;95343.09;5035704;28;20195;-87
2022/04/15 07:25:56;;;;;;;0.50;0.50;;;15.40;73.10;;;15.74;58.32;95358.97;5066605;28;20696;-86
2022/04/15 07:28:23;;;;;;;0.50;0.50;;;15.50;73.60;;;15.90;57.81;95362.16;5026243;28;20262;-87
2022/04/15 07:30:51;;;;;;;0.50;0.50;;;15.60;73.50;;;15.87;57.61;95346.72;5066341;28;20761;-87
2022/04/15 07:33:19;;;;;;;0.45;0.45;;;15.80;73.30;;;16.13;57.20;95367.69;5059763;28;20253;-87
2022/04/15 07:35:49;;;;;;;0.50;0.50;;;15.80;73.10;;;16.20;57.14;95366.81;5065362;28;20215;-87
2022/04/15 07:38:16;;;;;;;0.50;0.50;;;16.00;73.00;;;16.26;56.83;95361.50;5058617;28;20202;-88
2022/04/15 07:40:43;;;;;;;0.50;0.50;;;16.10;72.80;;;16.32;57.10;95373.84;5017541;28;20299;-87
2022/04/15 07:43:10;;;;;;;0.40;0.40;;;16.10;72.50;;;16.38;56.90;95372.19;5036126;28;20204;-87
2022/04/15 07:45:37;;;;;;;0.50;0.50;;;16.30;72.40;;;16.36;56.72;95341.66;5019119;28;20207;-88
2022/04/15 07:48:05;;;;;;;0.50;0.50;;;16.30;72.60;;;16.49;56.61;95357.44;5051342;28;20196;-88
2022/04/15 07:50:33;;;;;;;0.50;0.50;;;16.30;72.30;;;16.58;56.19;95358.75;5067738;28;20226;-88
2022/04/15 07:53:00;;;;;;;0.50;0.50;;;16.40;72.20;;;16.61;56.63;95363.63;5037027;28;20200;-88
2022/04/15 07:55:27;;;;;;;0.50;0.50;;;16.40;72.10;;;16.63;56.29;95356.25;5018990;28;20622;-87
2022/04/15 07:57:55;;;;;;;0.40;0.40;;;16.50;72.10;;;16.67;56.08;95361.94;5019120;28;20199;-88
2022/04/15 08:00:25;;;;;;;0.40;0.40;;;16.50;72.00;;;16.63;55.93;95356.25;5058803;28;20247;-87
2022/04/15 08:02:52;;;;;;;0.50;0.50;;;16.50;71.60;;;16.55;55.62;95348.63;5041781;28;20285;-87
2022/04/15 08:05:19;;;;;;;0.50;0.50;;;16.60;71.70;;;16.66;55.75;95362.94;5071068;28;20215;-86
2022/04/15 08:07:46;;;;;;;0.50;0.50;;;16.60;71.50;;;16.54;56.03;95341.69;5038006;28;20188;-87
2022/04/15 08:10:13;;;;;;;0.50;0.50;;;16.60;71.50;;;16.70;56.05;95361.50;5039093;28;20214;-87
2022/04/15 08:12:42;;;;;;;0.45;0.45;;;16.70;71.50;;;16.79;55.92;95357.53;5044693;28;20231;-87
2022/04/15 08:15:09;;;;;;;0.50;0.50;;;16.70;71.40;;;16.89;55.48;95366.81;5010419;28;20223;-87
2022/04/15 08:17:36;;;;;;;0.40;0.40;;;16.70;71.40;;;16.92;55.31;95363.75;5032516;28;20188;-87
2022/04/15 08:20:04;;;;;;;0.40;0.40;;;16.80;71.40;;;17.08;56.07;95365.81;5043945;28;20212;-87
2022/04/15 08:22:35;;;;;;;0.40;0.40;;;16.90;71.70;;;17.22;55.70;95352.41;5028439;28;20196;-87
2022/04/15 08:25:07;;;;;;;0.38;0.38;;;16.90;71.70;;;17.56;55.37;95369.50;5017891;28;20226;-87
2022/04/15 08:27:34;;;;;;;0.40;0.40;;;17.10;71.50;;;17.73;55.01;95366.22;5041478;28;20282;-88
2022/04/15 08:30:02;;;;;;;0.40;0.40;;;17.30;71.60;;;17.76;54.58;95365.78;5041309;28;20678;-85
2022/04/15 08:32:33;;;;;;;0.40;0.40;;;17.40;71.10;;;17.80;53.94;95366.13;5057627;28;20696;-87
2022/04/15 08:35:11;;;;;;;0.40;0.40;;;17.40;71.00;;;17.96;54.06;95372.69;5044896;28;20223;-87
2022/04/15 08:37:40;;;;;;;0.50;0.50;;;17.60;70.90;;;18.11;54.13;95367.75;5025637;28;20196;-88
2022/04/15 08:40:11;;;;;;;0.47;0.47;;;17.70;70.60;;;18.20;53.80;95355.75;5049589;28;20761;-88
2022/04/15 08:42:41;;;;;;;0.40;0.40;;;17.80;70.70;;;18.21;53.33;95349.44;5036819;28;20218;-88
2022/04/15 08:45:09;;;;;;;0.47;0.47;;;17.90;70.40;;;18.37;52.47;95371.84;5048757;28;20248;-88
2022/04/15 08:47:42;;;;;;;0.40;0.40;;;18.00;69.80;;;18.22;52.27;95345.72;5017468;28;20200;-89
2022/04/15 08:50:10;;;;;;;0.45;0.45;;;18.10;69.30;;;18.44;52.71;95365.59;5034876;28;20640;-88
2022/04/15 08:52:37;;;;;;;0.40;0.40;;;18.10;69.60;;;18.50;52.63;95354.06;5018149;28;20192;-86
2022/04/15 08:55:05;;;;;;;0.40;0.40;;;18.20;69.30;;;18.67;52.05;95354.19;5017182;28;20226;-88
2022/04/15 08:57:33;;;;;;;0.30;0.30;;;18.20;68.90;;;18.91;51.94;95357.66;5042502;28;20653;-88
2022/04/15 09:00:01;;;;;;;0.40;0.40;;;18.40;69.30;;;19.09;51.31;95364.69;5042995;28;20239;-88
2022/04/15 09:02:37;;;;;;;0.40;0.40;;;18.50;69.20;;;19.19;51.09;95359.56;5024208;28;20203;-87
2022/04/15 09:05:13;;;;;;;0.45;0.45;;;18.70;68.80;;;19.28;50.81;95361.84;5050512;28;20250;-87
2022/04/15 09:07:40;;;;;;;0.40;0.40;;;18.80;68.50;;;19.22;50.19;95357.47;5019057;28;20207;-87
2022/04/15 09:10:11;;;;;;;0.40;0.40;;;18.90;67.70;;;19.09;50.58;95355.88;5052656;28;20215;-89
2022/04/15 09:12:41;;;;;;;0.40;0.40;;;18.90;68.00;;;19.08;50.06;95362.22;5053208;28;20212;-87
2022/04/15 09:15:08;;;;;;;0.40;0.40;;;18.90;67.60;;;19.06;50.18;95370.44;5052497;28;20310;-87
2022/04/15 09:17:49;;;;;;;0.40;0.40;;;18.90;68.40;;;19.10;50.35;95360.16;5067996;28;20199;-87
2022/04/15 09:20:18;;;;;;;0.40;0.40;;;18.90;67.40;;;19.17;50.00;95356.31;5053411;28;20222;-87
2022/04/15 09:22:46;;;;;;;0.40;0.40;;;18.90;67.30;;;19.29;50.00;95363.47;5030256;28;20246;-87
2022/04/15 09:25:14;;;;;;;0.40;0.40;;;18.90;67.40;;;19.18;49.33;95338.53;5025223;28;20697;-86
2022/04/15 09:27:41;;;;;;;0.50;0.50;;;19.00;66.50;;;19.26;49.20;95351.47;5035360;28;20210;-86
2022/04/15 09:30:09;;;;;;;0.40;0.40;;;19.00;66.40;;;19.20;49.07;95339.13;5052475;28;20223;-86
2022/04/15 09:32:40;;;;;;;0.38;0.38;;;19.00;66.50;;;19.38;49.50;95340.75;5035844;28;20206;-87
2022/04/15 09:35:09;;;;;;;0.40;0.40;;;19.10;66.40;;;19.46;49.11;95339.59;5035928;28;20272;-87
2022/04/15 09:37:43;;;;;;;0.50;0.50;;;19.10;66.30;;;19.52;48.42;95336.78;5052080;28;20249;-87
2022/04/15 09:40:15;;;;;;;0.50;0.50;;;19.20;65.70;;;19.65;48.52;95345.53;5011190;28;20237;-87
2022/04/15 09:42:48;;;;;;;0.40;0.40;;;19.20;65.90;;;19.72;47.46;95348.84;5042042;28;20200;-87
2022/04/15 09:45:22;;;;;;;0.40;0.40;;;19.30;65.20;;;19.81;47.30;95346.59;5041828;28;20233;-88
2022/04/15 09:47:55;;;;;;;0.40;0.40;;;19.40;65.20;;;19.83;46.81;95342.72;5045919;28;20206;-86
2022/04/15 09:50:34;;;;;;;0.32;0.32;;;19.50;64.60;;;19.76;46.47;95326.06;5030569;28;20783;-87
2022/04/15 09:53:17;;;;;;;0.40;0.40;;;19.50;64.00;;;19.89;46.21;95348.13;5032365;28;20203;-85
2022/04/15 09:55:50;;;;;;;0.35;0.35;;;19.50;63.90;;;19.92;46.00;95343.13;5016553;28;20304;-86
2022/04/15 09:58:28;;;;;;;0.35;0.35;;;19.60;63.80;;;20.03;46.12;95340.63;5027609;28;20605;-86
2022/04/15 10:00:58;;;;;;;0.35;0.35;;;19.60;63.80;;;20.09;44.87;95340.47;5027306;28;20338;-86
2022/04/15 10:03:27;;;;;;;0.40;0.40;;;19.70;63.20;;;20.10;45.13;95347.41;5025233;28;20210;-85
2022/04/15 10:05:57;;;;;;;0.40;0.40;;;19.80;63.30;;;20.11;44.94;95338.34;5000790;28;20219;-87
2022/04/15 10:08:26;;;;;;;0.30;0.30;;;19.80;63.50;;;20.07;44.83;95337.25;5015134;28;20191;-86
2022/04/15 10:10:56;;;;;;;0.40;0.40;;;19.80;63.30;;;20.10;45.83;95333.28;5017327;28;20593;-85
2022/04/15 10:13:28;;;;;;;0.40;0.40;;;19.80;63.30;;;20.09;45.97;95326.34;5017369;28;20262;-86
2022/04/15 10:15:56;;;;;;;0.50;0.50;;;19.80;63.80;;;20.21;46.56;95321.72;5071519;28;20247;-86
2022/04/15 10:18:26;;;;;;;0.30;0.30;;;19.90;64.20;;;20.23;46.05;95316.97;5039787;28;20207;-86
2022/04/15 10:20:53;;;;;;;0.32;0.32;;;19.90;64.00;;;;;;5023966;28;20271;-86
2022/04/15 10:23:22;;;;;;;0.70;0.70;;;20.00;63.50;;;20.29;45.21;95336.53;5035782;28;20202;-86
2022/04/15 10:25:51;;;;;;;0.45;0.45;;;20.00;63.50;;;20.12;44.70;95326.66;5014560;28;20230;-86